sensor_id;sensor_type;location;lat;lon;timestamp;pressure;altitude;pressure_sealevel;temperature;humidity
33781;BME280;20097;50.832;19.100;2023-04-23T00:00:56;97918.78;;;8.46;84.78
33781;BME280;20097;50.832;19.100;2023-04-23T00:06:07;97918.31;;;8.42;85.46
33781;BME280;20097;50.832;19.100;2023-04-23T00:11:13;97917.00;;;8.38;85.74
33781;BME280;20097;50.832;19.100;2023-04-23T00:16:18;97913.59;;;8.38;85.28
33781;BME280;20097;50.832;19.100;2023-04-23T00:21:24;97913.75;;;8.36;84.49
33781;BME280;20097;50.832;19.100;2023-04-23T00:26:29;97907.63;;;8.29;85.19
33781;BME280;20097;50.832;19.100;2023-04-23T00:31:33;97904.03;;;8.22;86.56
33781;BME280;20097;50.832;19.100;2023-04-23T00:36:39;97907.31;;;8.16;87.37
33781;BME280;20097;50.832;19.100;2023-04-23T00:41:43;97902.13;;;8.16;86.86
33781;BME280;20097;50.832;19.100;2023-04-23T00:46:48;97895.28;;;8.15;86.74
33781;BME280;20097;50.832;19.100;2023-04-23T00:51:54;97897.44;;;8.11;88.11
33781;BME280;20097;50.832;19.100;2023-04-23T00:56:58;97894.00;;;8.11;87.11
33781;BME280;20097;50.832;19.100;2023-04-23T01:02:03;97891.44;;;8.03;88.30
33781;BME280;20097;50.832;19.100;2023-04-23T01:07:09;97898.59;;;8.01;87.88
33781;BME280;20097;50.832;19.100;2023-04-23T01:12:14;97906.22;;;8.02;87.80
33781;BME280;20097;50.832;19.100;2023-04-23T01:17:19;97905.09;;;7.97;88.93
33781;BME280;20097;50.832;19.100;2023-04-23T01:22:26;97899.25;;;7.95;86.98
33781;BME280;20097;50.832;19.100;2023-04-23T01:27:30;97900.38;;;7.92;87.12
33781;BME280;20097;50.832;19.100;2023-04-23T01:32:35;97900.91;;;7.88;87.76
33781;BME280;20097;50.832;19.100;2023-04-23T01:37:41;97902.66;;;7.87;88.45
33781;BME280;20097;50.832;19.100;2023-04-23T01:42:47;97899.44;;;7.85;89.24
33781;BME280;20097;50.832;19.100;2023-04-23T01:47:51;97900.25;;;7.86;88.28
33781;BME280;20097;50.832;19.100;2023-04-23T01:52:56;97899.13;;;7.88;87.83
33781;BME280;20097;50.832;19.100;2023-04-23T01:58:01;97892.13;;;7.89;89.19
33781;BME280;20097;50.832;19.100;2023-04-23T02:03:05;97891.66;;;7.85;89.23
33781;BME280;20097;50.832;19.100;2023-04-23T02:08:11;97884.16;;;7.82;89.15
33781;BME280;20097;50.832;19.100;2023-04-23T02:13:15;97886.75;;;7.82;89.46
33781;BME280;20097;50.832;19.100;2023-04-23T02:18:19;97879.16;;;7.73;90.96
33781;BME280;20097;50.832;19.100;2023-04-23T02:23:24;97875.94;;;7.63;91.49
33781;BME280;20097;50.832;19.100;2023-04-23T02:28:28;97873.69;;;7.44;94.82
33781;BME280;20097;50.832;19.100;2023-04-23T02:33:33;97876.16;;;7.29;97.02
33781;BME280;20097;50.832;19.100;2023-04-23T02:38:38;97871.78;;;7.30;98.15
33781;BME280;20097;50.832;19.100;2023-04-23T02:43:44;97869.00;;;7.31;98.76
33781;BME280;20097;50.832;19.100;2023-04-23T02:48:48;97869.66;;;7.25;98.89
33781;BME280;20097;50.832;19.100;2023-04-23T02:53:53;97869.19;;;7.22;99.50
33781;BME280;20097;50.832;19.100;2023-04-23T02:58:58;97867.53;;;7.21;99.94
33781;BME280;20097;50.832;19.100;2023-04-23T03:04:02;97864.47;;;7.17;100.00
33781;BME280;20097;50.832;19.100;2023-04-23T03:09:08;97865.28;;;7.18;100.00
33781;BME280;20097;50.832;19.100;2023-04-23T03:14:12;97870.63;;;7.16;99.97
33781;BME280;20097;50.832;19.100;2023-04-23T03:19:17;97853.94;;;7.19;100.00
33781;BME280;20097;50.832;19.100;2023-04-23T03:24:22;97858.81;;;7.22;99.68
33781;BME280;20097;50.832;19.100;2023-04-23T03:29:26;97851.97;;;7.21;99.40
33781;BME280;20097;50.832;19.100;2023-04-23T03:34:30;97857.81;;;7.23;98.86
33781;BME280;20097;50.832;19.100;2023-04-23T03:39:36;97861.06;;;7.25;98.22
33781;BME280;20097;50.832;19.100;2023-04-23T03:44:41;97859.28;;;7.25;98.91
33781;BME280;20097;50.832;19.100;2023-04-23T03:49:45;97860.72;;;7.28;97.84
33781;BME280;20097;50.832;19.100;2023-04-23T03:54:51;97859.13;;;7.27;99.34
33781;BME280;20097;50.832;19.100;2023-04-23T04:00:02;97870.94;;;7.29;99.13
33781;BME280;20097;50.832;19.100;2023-04-23T04:05:14;97866.25;;;7.33;99.52
33781;BME280;20097;50.832;19.100;2023-04-23T04:10:21;97868.69;;;7.34;100.00
33781;BME280;20097;50.832;19.100;2023-04-23T04:15:26;97867.84;;;7.42;98.71
33781;BME280;20097;50.832;19.100;2023-04-23T04:20:30;97866.22;;;7.49;98.09
33781;BME280;20097;50.832;19.100;2023-04-23T04:25:35;97868.31;;;7.61;97.45
33781;BME280;20097;50.832;19.100;2023-04-23T04:30:41;97877.22;;;7.75;96.56
33781;BME280;20097;50.832;19.100;2023-04-23T04:35:46;97867.47;;;7.85;96.37
33781;BME280;20097;50.832;19.100;2023-04-23T04:40:54;97874.22;;;8.02;94.13
33781;BME280;20097;50.832;19.100;2023-04-23T04:46:00;97883.09;;;8.15;93.49
33781;BME280;20097;50.832;19.100;2023-04-23T04:51:08;97879.81;;;8.29;94.16
33781;BME280;20097;50.832;19.100;2023-04-23T04:56:14;97881.19;;;8.48;91.56
33781;BME280;20097;50.832;19.100;2023-04-23T05:01:18;97886.13;;;8.66;90.46
33781;BME280;20097;50.832;19.100;2023-04-23T05:06:23;97888.47;;;8.83;90.04
33781;BME280;20097;50.832;19.100;2023-04-23T05:11:28;97882.84;;;9.02;89.02
33781;BME280;20097;50.832;19.100;2023-04-23T05:16:33;97882.34;;;9.21;88.66
33781;BME280;20097;50.832;19.100;2023-04-23T05:21:37;97882.50;;;9.42;88.48
33781;BME280;20097;50.832;19.100;2023-04-23T05:26:42;97882.44;;;9.65;85.68
33781;BME280;20097;50.832;19.100;2023-04-23T05:31:46;97882.38;;;9.88;86.13
33781;BME280;20097;50.832;19.100;2023-04-23T05:36:51;97884.94;;;10.10;84.23
33781;BME280;20097;50.832;19.100;2023-04-23T05:41:56;97886.47;;;10.34;83.21
33781;BME280;20097;50.832;19.100;2023-04-23T05:47:00;97887.16;;;10.57;82.81
33781;BME280;20097;50.832;19.100;2023-04-23T05:52:04;97892.22;;;10.79;81.99
33781;BME280;20097;50.832;19.100;2023-04-23T05:57:10;97883.84;;;11.05;80.38
33781;BME280;20097;50.832;19.100;2023-04-23T06:02:14;97884.09;;;11.31;80.54
33781;BME280;20097;50.832;19.100;2023-04-23T06:07:18;97883.28;;;11.58;78.90
33781;BME280;20097;50.832;19.100;2023-04-23T06:12:24;97880.88;;;11.84;78.66
33781;BME280;20097;50.832;19.100;2023-04-23T06:17:29;97885.88;;;12.13;77.54
33781;BME280;20097;50.832;19.100;2023-04-23T06:22:33;97892.31;;;12.45;77.81
33781;BME280;20097;50.832;19.100;2023-04-23T06:27:38;97890.22;;;12.75;76.49
33781;BME280;20097;50.832;19.100;2023-04-23T06:32:49;97885.44;;;13.04;74.53
33781;BME280;20097;50.832;19.100;2023-04-23T06:37:53;97885.28;;;13.32;72.60
33781;BME280;20097;50.832;19.100;2023-04-23T06:42:59;97882.50;;;13.59;71.79
33781;BME280;20097;50.832;19.100;2023-04-23T06:48:31;97873.56;;;13.93;71.73
33781;BME280;20097;50.832;19.100;2023-04-23T06:53:36;97878.97;;;14.31;69.71
33781;BME280;20097;50.832;19.100;2023-04-23T06:58:41;97879.63;;;14.64;65.97
33781;BME280;20097;50.832;19.100;2023-04-23T07:03:52;97877.44;;;14.98;64.91
33781;BME280;20097;50.832;19.100;2023-04-23T07:08:56;97876.28;;;15.19;63.43
33781;BME280;20097;50.832;19.100;2023-04-23T07:14:01;97878.31;;;15.48;62.34
33781;BME280;20097;50.832;19.100;2023-04-23T07:19:06;97873.97;;;15.85;61.63
33781;BME280;20097;50.832;19.100;2023-04-23T07:24:10;97872.81;;;16.17;58.90
33781;BME280;20097;50.832;19.100;2023-04-23T07:29:15;97877.59;;;16.44;59.03
33781;BME280;20097;50.832;19.100;2023-04-23T07:34:19;97875.56;;;16.65;57.24
33781;BME280;20097;50.832;19.100;2023-04-23T07:39:23;97876.66;;;16.87;56.77
33781;BME280;20097;50.832;19.100;2023-04-23T07:44:29;97870.81;;;17.14;56.44
33781;BME280;20097;50.832;19.100;2023-04-23T07:49:32;97869.50;;;17.35;54.31
33781;BME280;20097;50.832;19.100;2023-04-23T07:54:37;97859.22;;;17.56;54.38
33781;BME280;20097;50.832;19.100;2023-04-23T07:59:42;97874.50;;;17.77;51.96
33781;BME280;20097;50.832;19.100;2023-04-23T08:04:47;97869.22;;;17.89;52.48
33781;BME280;20097;50.832;19.100;2023-04-23T08:09:51;97869.31;;;18.06;52.68
33781;BME280;20097;50.832;19.100;2023-04-23T08:14:57;97869.19;;;18.24;50.62
33781;BME280;20097;50.832;19.100;2023-04-23T08:20:09;97870.00;;;18.36;51.46
33781;BME280;20097;50.832;19.100;2023-04-23T08:25:13;97871.81;;;18.47;48.83
33781;BME280;20097;50.832;19.100;2023-04-23T08:30:18;97860.84;;;18.66;50.69
33781;BME280;20097;50.832;19.100;2023-04-23T08:35:23;97859.75;;;18.79;50.38
33781;BME280;20097;50.832;19.100;2023-04-23T08:40:29;97865.16;;;18.84;49.03
33781;BME280;20097;50.832;19.100;2023-04-23T08:45:35;97845.88;;;19.00;48.61
33781;BME280;20097;50.832;19.100;2023-04-23T08:50:43;97856.22;;;19.01;45.50
33781;BME280;20097;50.832;19.100;2023-04-23T08:55:47;97855.34;;;19.12;45.38
33781;BME280;20097;50.832;19.100;2023-04-23T09:00:53;97844.47;;;19.26;45.28
33781;BME280;20097;50.832;19.100;2023-04-23T09:06:00;97835.38;;;19.50;45.38
33781;BME280;20097;50.832;19.100;2023-04-23T09:11:04;97836.31;;;19.60;44.67
33781;BME280;20097;50.832;19.100;2023-04-23T09:16:11;97836.56;;;19.75;45.79
33781;BME280;20097;50.832;19.100;2023-04-23T09:21:16;97835.91;;;19.85;44.76
33781;BME280;20097;50.832;19.100;2023-04-23T09:26:21;97832.16;;;20.02;44.95
33781;BME280;20097;50.832;19.100;2023-04-23T09:31:26;97831.75;;;20.10;44.00
33781;BME280;20097;50.832;19.100;2023-04-23T09:36:30;97826.63;;;20.20;44.70
33781;BME280;20097;50.832;19.100;2023-04-23T09:41:35;97817.91;;;20.25;43.75
33781;BME280;20097;50.832;19.100;2023-04-23T09:46:43;97821.97;;;20.54;45.67
33781;BME280;20097;50.832;19.100;2023-04-23T09:51:48;97804.84;;;20.62;43.21
33781;BME280;20097;50.832;19.100;2023-04-23T09:56:53;97801.97;;;20.95;43.00
33781;BME280;20097;50.832;19.100;2023-04-23T10:02:03;97804.34;;;21.18;42.62
33781;BME280;20097;50.832;19.100;2023-04-23T10:07:08;97796.34;;;21.13;42.00
33781;BME280;20097;50.832;19.100;2023-04-23T10:12:18;97796.03;;;21.09;43.41
33781;BME280;20097;50.832;19.100;2023-04-23T10:17:44;97788.19;;;20.93;41.70
33781;BME280;20097;50.832;19.100;2023-04-23T10:22:49;97783.88;;;21.13;41.90
33781;BME280;20097;50.832;19.100;2023-04-23T10:27:55;97790.84;;;21.24;41.41
33781;BME280;20097;50.832;19.100;2023-04-23T10:33:02;97774.78;;;21.41;42.80
33781;BME280;20097;50.832;19.100;2023-04-23T10:38:17;97780.13;;;21.78;41.26
33781;BME280;20097;50.832;19.100;2023-04-23T10:43:22;97763.47;;;22.02;41.59
33781;BME280;20097;50.832;19.100;2023-04-23T10:48:28;97763.88;;;22.26;41.33
33781;BME280;20097;50.832;19.100;2023-04-23T10:53:32;97766.06;;;22.44;40.98
33781;BME280;20097;50.832;19.100;2023-04-23T10:58:47;97774.22;;;22.22;39.75
33781;BME280;20097;50.832;19.100;2023-04-23T11:03:54;97767.63;;;22.45;38.88
33781;BME280;20097;50.832;19.100;2023-04-23T11:08:59;97758.41;;;22.67;39.92
33781;BME280;20097;50.832;19.100;2023-04-23T11:14:32;97755.53;;;22.89;40.02
33781;BME280;20097;50.832;19.100;2023-04-23T11:19:40;97756.72;;;22.41;38.46
33781;BME280;20097;50.832;19.100;2023-04-23T11:24:44;97747.00;;;22.92;39.25
33781;BME280;20097;50.832;19.100;2023-04-23T11:29:52;97749.13;;;22.85;38.10
33781;BME280;20097;50.832;19.100;2023-04-23T11:34:58;97747.03;;;22.00;38.82
33781;BME280;20097;50.832;19.100;2023-04-23T11:40:04;97734.50;;;22.97;38.87
33781;BME280;20097;50.832;19.100;2023-04-23T11:45:16;97749.66;;;23.57;36.91
33781;BME280;20097;50.832;19.100;2023-04-23T11:50:24;97748.34;;;22.84;38.02
33781;BME280;20097;50.832;19.100;2023-04-23T11:55:29;97742.69;;;22.61;39.36
33781;BME280;20097;50.832;19.100;2023-04-23T12:00:33;97739.84;;;23.08;37.71
33781;BME280;20097;50.832;19.100;2023-04-23T12:05:40;97733.88;;;22.50;40.20
33781;BME280;20097;50.832;19.100;2023-04-23T12:10:48;97727.91;;;22.03;41.11
33781;BME280;20097;50.832;19.100;2023-04-23T12:15:54;97714.78;;;22.53;41.14
33781;BME280;20097;50.832;19.100;2023-04-23T12:21:05;97712.09;;;23.49;41.56
33781;BME280;20097;50.832;19.100;2023-04-23T12:26:10;97710.38;;;23.98;39.35
33781;BME280;20097;50.832;19.100;2023-04-23T12:31:18;97719.16;;;24.08;38.69
33781;BME280;20097;50.832;19.100;2023-04-23T12:36:27;97711.34;;;24.22;37.63
33781;BME280;20097;50.832;19.100;2023-04-23T12:41:32;97721.78;;;24.13;36.97
33781;BME280;20097;50.832;19.100;2023-04-23T12:46:36;97706.00;;;24.66;36.68
33781;BME280;20097;50.832;19.100;2023-04-23T12:51:42;97702.63;;;23.96;37.41
33781;BME280;20097;50.832;19.100;2023-04-23T12:56:46;97694.03;;;25.30;36.79
33781;BME280;20097;50.832;19.100;2023-04-23T13:01:50;97704.28;;;25.94;37.28
33781;BME280;20097;50.832;19.100;2023-04-23T13:06:59;97704.41;;;25.37;35.42
33781;BME280;20097;50.832;19.100;2023-04-23T13:12:03;97696.22;;;25.23;37.05
33781;BME280;20097;50.832;19.100;2023-04-23T13:17:07;97695.75;;;25.16;36.99
33781;BME280;20097;50.832;19.100;2023-04-23T13:22:13;97689.31;;;26.17;35.45
33781;BME280;20097;50.832;19.100;2023-04-23T13:27:17;97701.38;;;26.38;34.30
33781;BME280;20097;50.832;19.100;2023-04-23T13:32:21;97689.31;;;26.17;34.48
33781;BME280;20097;50.832;19.100;2023-04-23T13:37:30;97686.00;;;25.30;34.76
33781;BME280;20097;50.832;19.100;2023-04-23T13:42:35;97682.84;;;26.23;34.98
33781;BME280;20097;50.832;19.100;2023-04-23T13:47:39;97675.69;;;24.52;34.93
33781;BME280;20097;50.832;19.100;2023-04-23T13:52:45;97658.69;;;23.89;38.21
33781;BME280;20097;50.832;19.100;2023-04-23T13:57:49;97643.31;;;24.68;36.70
33781;BME280;20097;50.832;19.100;2023-04-23T14:02:54;97648.13;;;23.59;35.94
33781;BME280;20097;50.832;19.100;2023-04-23T14:07:59;97642.38;;;23.17;37.33
33781;BME280;20097;50.832;19.100;2023-04-23T14:13:03;97641.84;;;24.81;35.20
33781;BME280;20097;50.832;19.100;2023-04-23T14:18:08;97632.63;;;25.25;36.13
33781;BME280;20097;50.832;19.100;2023-04-23T14:28:51;97634.06;;;25.65;34.75
33781;BME280;20097;50.832;19.100;2023-04-23T14:33:55;97626.88;;;24.46;35.98
33781;BME280;20097;50.832;19.100;2023-04-23T14:39:02;97628.94;;;25.68;35.76
33781;BME280;20097;50.832;19.100;2023-04-23T14:44:07;97623.97;;;26.23;32.96
33781;BME280;20097;50.832;19.100;2023-04-23T14:49:11;97633.19;;;26.67;32.67
33781;BME280;20097;50.832;19.100;2023-04-23T14:54:17;97638.56;;;26.30;32.05
33781;BME280;20097;50.832;19.100;2023-04-23T14:59:22;97617.19;;;24.60;32.57
33781;BME280;20097;50.832;19.100;2023-04-23T15:04:26;97620.34;;;23.80;34.59
33781;BME280;20097;50.832;19.100;2023-04-23T15:09:32;97614.25;;;24.23;34.72
33781;BME280;20097;50.832;19.100;2023-04-23T15:14:36;97613.78;;;25.12;35.45
33781;BME280;20097;50.832;19.100;2023-04-23T15:19:40;97616.88;;;24.67;36.75
33781;BME280;20097;50.832;19.100;2023-04-23T15:24:46;97616.56;;;24.73;37.73
33781;BME280;20097;50.832;19.100;2023-04-23T15:29:50;97605.84;;;23.96;38.77
33781;BME280;20097;50.832;19.100;2023-04-23T15:34:54;97604.38;;;22.71;40.97
33781;BME280;20097;50.832;19.100;2023-04-23T15:40:00;97588.34;;;22.01;42.14
33781;BME280;20097;50.832;19.100;2023-04-23T15:45:05;97588.06;;;22.02;42.55
33781;BME280;20097;50.832;19.100;2023-04-23T15:50:10;97581.59;;;21.68;43.05
33781;BME280;20097;50.832;19.100;2023-04-23T15:55:16;97573.09;;;21.66;42.88
33781;BME280;20097;50.832;19.100;2023-04-23T16:00:20;97571.19;;;21.56;43.49
33781;BME280;20097;50.832;19.100;2023-04-23T16:05:25;97570.28;;;21.26;43.50
33781;BME280;20097;50.832;19.100;2023-04-23T16:10:30;97565.66;;;21.06;43.04
33781;BME280;20097;50.832;19.100;2023-04-23T16:15:36;97555.22;;;20.95;43.01
33781;BME280;20097;50.832;19.100;2023-04-23T16:20:40;97551.47;;;20.86;43.29
33781;BME280;20097;50.832;19.100;2023-04-23T16:25:45;97552.69;;;20.68;43.33
33781;BME280;20097;50.832;19.100;2023-04-23T16:30:49;97553.16;;;20.60;43.99
33781;BME280;20097;50.832;19.100;2023-04-23T16:35:53;97551.16;;;20.40;43.46
33781;BME280;20097;50.832;19.100;2023-04-23T16:40:59;97553.09;;;20.18;45.44
33781;BME280;20097;50.832;19.100;2023-04-23T16:46:04;97541.28;;;20.04;47.45
33781;BME280;20097;50.832;19.100;2023-04-23T16:51:08;97532.53;;;19.72;48.94
33781;BME280;20097;50.832;19.100;2023-04-23T16:56:13;97535.56;;;19.59;49.85
33781;BME280;20097;50.832;19.100;2023-04-23T17:01:17;97519.19;;;19.41;50.58
33781;BME280;20097;50.832;19.100;2023-04-23T17:06:25;97523.00;;;19.28;51.11
33781;BME280;20097;50.832;19.100;2023-04-23T17:11:32;97509.59;;;19.13;51.97
33781;BME280;20097;50.832;19.100;2023-04-23T17:16:36;97511.03;;;18.99;51.51
33781;BME280;20097;50.832;19.100;2023-04-23T17:21:40;97519.38;;;18.91;51.55
33781;BME280;20097;50.832;19.100;2023-04-23T17:26:45;97503.25;;;18.71;52.36
33781;BME280;20097;50.832;19.100;2023-04-23T17:31:51;97497.59;;;18.46;54.55
33781;BME280;20097;50.832;19.100;2023-04-23T17:36:55;97493.34;;;18.12;57.67
33781;BME280;20097;50.832;19.100;2023-04-23T17:42:00;97494.44;;;17.83;59.03
33781;BME280;20097;50.832;19.100;2023-04-23T17:47:05;97487.28;;;17.50;61.52
33781;BME280;20097;50.832;19.100;2023-04-23T17:52:08;97491.41;;;17.18;64.84
33781;BME280;20097;50.832;19.100;2023-04-23T17:57:14;97497.31;;;16.85;67.95
33781;BME280;20097;50.832;19.100;2023-04-23T18:02:20;97507.34;;;16.60;69.41
33781;BME280;20097;50.832;19.100;2023-04-23T18:07:25;97507.09;;;16.38;69.98
33781;BME280;20097;50.832;19.100;2023-04-23T18:12:30;97508.88;;;16.15;71.19
33781;BME280;20097;50.832;19.100;2023-04-23T18:17:34;97519.53;;;15.97;72.08
33781;BME280;20097;50.832;19.100;2023-04-23T18:22:39;97524.19;;;15.83;73.03
33781;BME280;20097;50.832;19.100;2023-04-23T18:27:45;97528.41;;;15.43;75.82
33781;BME280;20097;50.832;19.100;2023-04-23T18:32:54;97527.59;;;15.25;78.00
33781;BME280;20097;50.832;19.100;2023-04-23T18:37:59;97529.72;;;15.16;78.93
33781;BME280;20097;50.832;19.100;2023-04-23T18:43:10;97528.88;;;15.04;79.28
33781;BME280;20097;50.832;19.100;2023-04-23T18:48:37;97536.38;;;14.82;81.89
33781;BME280;20097;50.832;19.100;2023-04-23T18:53:42;97537.88;;;14.72;82.17
33781;BME280;20097;50.832;19.100;2023-04-23T18:58:48;97535.72;;;14.44;83.96
33781;BME280;20097;50.832;19.100;2023-04-23T19:03:53;97541.34;;;14.48;83.54
33781;BME280;20097;50.832;19.100;2023-04-23T19:08:58;97535.38;;;14.16;88.74
33781;BME280;20097;50.832;19.100;2023-04-23T19:14:04;97531.88;;;13.98;93.13
33781;BME280;20097;50.832;19.100;2023-04-23T19:19:08;97534.63;;;13.78;96.99
33781;BME280;20097;50.832;19.100;2023-04-23T19:24:12;97538.34;;;13.64;99.33
33781;BME280;20097;50.832;19.100;2023-04-23T19:29:18;97535.38;;;13.54;100.00
33781;BME280;20097;50.832;19.100;2023-04-23T19:34:25;97538.25;;;13.46;100.00
33781;BME280;20097;50.832;19.100;2023-04-23T19:39:29;97541.28;;;13.43;100.00
33781;BME280;20097;50.832;19.100;2023-04-23T19:44:35;97534.22;;;13.43;100.00
33781;BME280;20097;50.832;19.100;2023-04-23T19:49:40;97533.69;;;13.35;100.00
33781;BME280;20097;50.832;19.100;2023-04-23T19:54:44;97530.88;;;13.30;100.00
33781;BME280;20097;50.832;19.100;2023-04-23T19:59:52;97530.69;;;13.25;100.00
33781;BME280;20097;50.832;19.100;2023-04-23T20:04:56;97525.69;;;13.17;100.00
33781;BME280;20097;50.832;19.100;2023-04-23T20:10:00;97517.44;;;13.13;100.00
33781;BME280;20097;50.832;19.100;2023-04-23T20:15:06;97516.63;;;13.13;100.00
33781;BME280;20097;50.832;19.100;2023-04-23T20:20:11;97517.88;;;13.04;100.00
33781;BME280;20097;50.832;19.100;2023-04-23T20:25:14;97530.97;;;12.97;100.00
33781;BME280;20097;50.832;19.100;2023-04-23T20:30:21;97523.16;;;12.91;100.00
33781;BME280;20097;50.832;19.100;2023-04-23T20:35:25;97521.75;;;12.82;100.00
33781;BME280;20097;50.832;19.100;2023-04-23T20:40:32;97528.22;;;12.73;100.00
33781;BME280;20097;50.832;19.100;2023-04-23T20:45:37;97525.03;;;12.58;100.00
33781;BME280;20097;50.832;19.100;2023-04-23T20:50:42;97524.84;;;12.53;100.00
33781;BME280;20097;50.832;19.100;2023-04-23T20:55:47;97520.41;;;12.60;100.00
33781;BME280;20097;50.832;19.100;2023-04-23T21:00:52;97509.69;;;12.74;100.00
33781;BME280;20097;50.832;19.100;2023-04-23T21:05:56;97508.22;;;12.91;100.00
33781;BME280;20097;50.832;19.100;2023-04-23T21:11:00;97512.25;;;12.94;100.00
33781;BME280;20097;50.832;19.100;2023-04-23T21:16:06;97506.63;;;12.90;100.00
33781;BME280;20097;50.832;19.100;2023-04-23T21:21:10;97494.56;;;12.83;100.00
33781;BME280;20097;50.832;19.100;2023-04-23T21:26:15;97498.41;;;12.74;100.00
33781;BME280;20097;50.832;19.100;2023-04-23T21:31:28;97494.19;;;12.73;100.00
33781;BME280;20097;50.832;19.100;2023-04-23T21:36:36;97484.16;;;12.57;100.00
33781;BME280;20097;50.832;19.100;2023-04-23T21:41:40;97483.38;;;12.50;100.00
33781;BME280;20097;50.832;19.100;2023-04-23T21:46:46;97492.47;;;12.47;100.00
33781;BME280;20097;50.832;19.100;2023-04-23T21:51:50;97482.25;;;12.13;100.00
33781;BME280;20097;50.832;19.100;2023-04-23T21:56:56;97479.03;;;12.11;100.00
33781;BME280;20097;50.832;19.100;2023-04-23T22:02:02;97475.19;;;12.00;100.00
33781;BME280;20097;50.832;19.100;2023-04-23T22:07:06;97474.78;;;12.03;100.00
33781;BME280;20097;50.832;19.100;2023-04-23T22:12:14;97483.03;;;12.07;100.00
33781;BME280;20097;50.832;19.100;2023-04-23T22:17:20;97481.03;;;12.09;100.00
33781;BME280;20097;50.832;19.100;2023-04-23T22:22:24;97483.63;;;12.09;100.00
33781;BME280;20097;50.832;19.100;2023-04-23T22:27:28;97475.78;;;12.09;100.00
33781;BME280;20097;50.832;19.100;2023-04-23T22:32:33;97472.38;;;11.95;100.00
33781;BME280;20097;50.832;19.100;2023-04-23T22:37:37;97473.81;;;11.85;100.00
33781;BME280;20097;50.832;19.100;2023-04-23T22:42:41;97458.72;;;11.67;100.00
33781;BME280;20097;50.832;19.100;2023-04-23T22:47:48;97448.03;;;11.56;100.00
33781;BME280;20097;50.832;19.100;2023-04-23T22:52:52;97446.00;;;11.51;100.00
33781;BME280;20097;50.832;19.100;2023-04-23T22:57:56;97445.00;;;11.52;100.00
33781;BME280;20097;50.832;19.100;2023-04-23T23:03:01;97439.53;;;11.34;100.00
33781;BME280;20097;50.832;19.100;2023-04-23T23:08:06;97436.47;;;11.11;100.00
33781;BME280;20097;50.832;19.100;2023-04-23T23:13:10;97434.28;;;11.15;100.00
33781;BME280;20097;50.832;19.100;2023-04-23T23:18:15;97424.78;;;10.87;100.00
33781;BME280;20097;50.832;19.100;2023-04-23T23:23:20;97421.56;;;10.85;100.00
33781;BME280;20097;50.832;19.100;2023-04-23T23:28:23;97418.28;;;10.70;100.00
33781;BME280;20097;50.832;19.100;2023-04-23T23:33:29;97405.81;;;10.59;100.00
33781;BME280;20097;50.832;19.100;2023-04-23T23:38:33;97410.84;;;10.61;100.00
33781;BME280;20097;50.832;19.100;2023-04-23T23:43:37;97413.03;;;10.57;100.00
33781;BME280;20097;50.832;19.100;2023-04-23T23:48:43;97399.56;;;10.54;100.00
33781;BME280;20097;50.832;19.100;2023-04-23T23:53:47;97404.75;;;10.47;100.00
33781;BME280;20097;50.832;19.100;2023-04-23T23:58:51;97400.53;;;10.46;100.00
